Time;durP1;ratioP1;P1;durP2;ratioP2;P2;SDS_P1;SDS_P2;PMS_P1;PMS_P2;Temp;Humidity;BMP_temperature;BMP_pressure;BME280_temperature;BME280_humidity;BME280_pressure;Samples;Min_cycle;Max_cycle;Signal;HPM_P1;HPM_P2
2023/12/15 00:00:59;;;;;;;16.83;7.72;;;;;;;8.28;92.13;98335.94;4395192;32;20094;-73
2023/12/15 00:03:26;;;;;;;20.08;8.60;;;;;;;8.10;93.17;98339.91;4394911;32;20075;-73
2023/12/15 00:05:54;;;;;;;20.70;8.85;;;;;;;8.06;95.16;98334.88;4395012;32;20090;-73
2023/12/15 00:08:21;;;;;;;16.95;8.15;;;;;;;8.18;92.85;98342.25;4395157;32;20098;-73
2023/12/15 00:10:48;;;;;;;18.60;8.40;;;;;;;8.39;91.79;98336.50;4394835;32;20430;-73
2023/12/15 00:13:15;;;;;;;19.08;8.35;;;;;;;8.64;89.43;98346.09;4395115;32;20087;-73
2023/12/15 00:15:42;;;;;;;20.58;8.32;;;;;;;8.64;90.19;98349.50;4394980;32;20115;-73
2023/12/15 00:18:09;;;;;;;17.85;7.80;;;;;;;8.27;91.51;98361.72;4393508;32;20151;-73
2023/12/15 00:20:36;;;;;;;20.20;7.82;;;;;;;8.37;91.72;98358.84;4395062;32;20468;-73
2023/12/15 00:23:03;;;;;;;18.17;8.57;;;;;;;8.72;88.28;98357.00;4395034;32;20078;-74
2023/12/15 00:25:30;;;;;;;18.92;7.50;;;;;;;8.37;89.25;98371.72;4394527;32;20105;-74
2023/12/15 00:27:57;;;;;;;19.37;8.18;;;;;;;8.25;91.36;98379.75;4393904;32;20457;-73
2023/12/15 00:30:24;;;;;;;18.85;8.45;;;;;;;9.22;84.87;98373.41;4394947;32;20104;-73
2023/12/15 00:32:52;;;;;;;18.08;8.30;;;;;;;10.12;78.09;98375.53;4394658;32;20140;-73
2023/12/15 00:35:19;;;;;;;18.37;7.85;;;;;;;9.21;82.43;98376.87;4394992;32;20205;-74
2023/12/15 00:37:46;;;;;;;17.08;7.55;;;;;;;9.38;82.75;98388.38;4394400;32;20114;-73
2023/12/15 00:40:14;;;;;;;17.37;7.47;;;;;;;8.50;87.76;98387.63;4394709;32;20115;-74
2023/12/15 00:42:41;;;;;;;18.65;7.53;;;;;;;8.66;88.02;98382.91;4381293;32;20165;-75
2023/12/15 00:45:08;;;;;;;17.35;7.25;;;;;;;8.58;88.04;98383.09;4394492;32;20105;-74
2023/12/15 00:47:35;;;;;;;18.48;7.70;;;;;;;9.44;83.52;98383.84;4381240;32;20116;-74
2023/12/15 00:50:05;;;;;;;17.45;8.07;;;;;;;8.60;87.07;98391.63;4394865;32;20160;-74
2023/12/15 00:52:32;;;;;;;17.83;8.20;;;;;;;9.19;84.12;98394.13;4394669;32;20086;-73
2023/12/15 00:54:59;;;;;;;17.80;7.65;;;;;;;9.25;81.76;98395.63;4394808;32;20074;-74
2023/12/15 00:57:26;;;;;;;16.52;8.23;;;;;;;8.96;85.84;98404.28;4394530;32;20359;-74
2023/12/15 00:59:53;;;;;;;16.27;7.53;;;;;;;8.87;85.36;98400.25;4394039;32;20118;-74
2023/12/15 01:02:19;;;;;;;17.37;7.60;;;;;;;8.32;89.04;98412.12;4394362;32;20155;-73
2023/12/15 01:04:46;;;;;;;16.65;7.60;;;;;;;8.40;88.46;98415.37;4394655;32;20378;-74
2023/12/15 01:07:13;;;;;;;17.50;7.43;;;;;;;9.40;82.92;98418.34;4394361;32;20098;-73
2023/12/15 01:09:40;;;;;;;17.80;7.70;;;;;;;9.10;82.30;98415.00;4394784;32;20090;-73
2023/12/15 01:12:07;;;;;;;18.67;7.47;;;;;;;8.94;84.41;98418.94;4394705;32;20127;-74
2023/12/15 01:14:34;;;;;;;15.63;7.07;;;;;;;9.14;82.75;98428.59;4394251;32;20093;-74
2023/12/15 01:17:02;;;;;;;16.27;7.60;;;;;;;9.21;82.51;98425.78;4394353;32;20547;-74
2023/12/15 01:19:29;;;;;;;15.10;6.90;;;;;;;9.28;82.14;98439.34;4393595;32;20458;-74
2023/12/15 01:21:56;;;;;;;18.35;8.38;;;;;;;8.91;85.94;98434.44;4394192;32;20094;-73
2023/12/15 01:24:23;;;;;;;20.17;8.25;;;;;;;9.02;86.68;98440.13;4394447;32;20143;-73
2023/12/15 01:26:50;;;;;;;17.55;7.65;;;;;;;8.97;86.90;98444.56;4394153;32;20116;-73
2023/12/15 01:29:17;;;;;;;17.15;7.43;;;;;;;9.15;85.47;98449.19;4394568;32;20110;-73
2023/12/15 01:31:44;;;;;;;15.18;6.62;;;;;;;8.67;87.99;98459.19;4394477;32;20090;-73
2023/12/15 01:34:11;;;;;;;16.12;7.25;;;;;;;8.35;89.99;98453.19;4394138;32;20671;-73
2023/12/15 01:36:38;;;;;;;19.05;7.70;;;;;;;8.87;86.75;98456.03;4394175;32;20120;-73
2023/12/15 01:39:05;;;;;;;16.48;7.50;;;;;;;8.99;86.88;98446.22;4394178;32;20423;-74
2023/12/15 01:41:32;;;;;;;18.50;7.70;;;;;;;8.95;86.38;98449.78;4393972;32;20440;-73
2023/12/15 01:43:59;;;;;;;16.08;7.40;;;;;;;9.03;85.66;98454.66;4394315;32;20401;-74
2023/12/15 01:46:26;;;;;;;17.55;8.40;;;;;;;9.29;83.43;98461.63;4394127;32;20160;-73
2023/12/15 01:48:53;;;;;;;17.27;7.70;;;;;;;9.35;83.20;98463.13;4392738;32;20114;-73
2023/12/15 01:51:20;;;;;;;16.40;7.40;;;;;;;9.42;82.60;98462.06;4394237;32;20090;-73
2023/12/15 01:53:48;;;;;;;14.10;6.43;;;;;;;9.46;81.31;98474.81;4394186;32;20078;-74
2023/12/15 01:56:15;;;;;;;15.70;6.60;;;;;;;9.44;81.68;98466.28;4393672;32;20155;-74
2023/12/15 01:58:42;;;;;;;14.23;6.80;;;;;;;8.50;85.63;98482.78;4394055;32;20508;-73
2023/12/15 02:01:09;;;;;;;15.40;7.37;;;;;;;8.93;83.64;98476.41;4394042;32;20151;-73
2023/12/15 02:03:36;;;;;;;14.77;6.37;;;;;;;9.09;82.74;98480.25;4393572;32;20104;-74
2023/12/15 02:06:03;;;;;;;17.58;7.20;;;;;;;9.25;81.65;98471.19;4393773;32;20162;-73
2023/12/15 02:08:30;;;;;;;14.13;6.50;;;;;;;8.74;83.83;98478.69;4394007;32;20107;-73
2023/12/15 02:10:57;;;;;;;13.55;6.62;;;;;;;8.81;83.16;98481.94;4393616;32;20759;-73
2023/12/15 02:13:24;;;;;;;14.48;6.40;;;;;;;8.36;85.19;98470.31;4395714;32;20152;-73
2023/12/15 02:15:51;;;;;;;14.75;6.87;;;;;;;8.71;82.96;98468.47;4395936;32;20106;-74
2023/12/15 02:18:18;;;;;;;15.27;6.75;;;;;;;8.28;84.88;98469.63;4395468;32;20569;-73
2023/12/15 02:20:45;;;;;;;14.80;6.62;;;;;;;8.62;83.28;98467.03;4395945;32;20109;-73
2023/12/15 02:23:12;;;;;;;15.35;6.22;;;;;;;9.27;79.86;98474.53;4395574;32;20108;-73
2023/12/15 02:25:39;;;;;;;14.93;6.65;;;;;;;8.02;86.73;98477.19;4395773;32;20094;-74
2023/12/15 02:28:06;;;;;;;15.40;6.87;;;;;;;8.71;82.55;98491.63;4395728;32;20110;-74
2023/12/15 02:30:33;;;;;;;16.00;7.15;;;;;;;9.25;79.65;98478.91;4395448;32;20158;-73
2023/12/15 02:33:00;;;;;;;14.80;6.60;;;;;;;8.95;80.78;98485.81;4395801;32;20134;-74
2023/12/15 02:35:28;;;;;;;15.43;6.78;;;;;;;8.54;83.06;98486.97;4395709;32;20086;-73
2023/12/15 02:37:55;;;;;;;18.27;7.70;;;;;;;8.26;84.67;98493.69;4395216;32;20099;-73
2023/12/15 02:40:22;;;;;;;16.25;6.80;;;;;;;8.81;82.23;98492.22;4395417;32;20468;-73
2023/12/15 02:42:49;;;;;;;14.45;6.50;;;;;;;8.38;83.62;98494.25;4395778;32;20108;-73
2023/12/15 02:45:16;;;;;;;15.18;6.55;;;;;;;8.68;82.72;98495.12;4395292;32;20172;-74
2023/12/15 02:47:43;;;;;;;16.17;6.78;;;;;;;8.70;82.38;98500.25;4395590;32;20102;-74
2023/12/15 02:50:11;;;;;;;15.32;6.87;;;;;;;7.93;86.27;98501.38;4395687;32;20495;-73
2023/12/15 02:52:38;;;;;;;16.10;6.80;;;;;;;8.81;82.91;98512.81;4395382;32;20153;-73
2023/12/15 02:55:06;;;;;;;16.98;7.05;;;;;;;7.99;87.04;98500.41;4395554;32;20106;-74
2023/12/15 02:57:35;;;;;;;16.60;7.37;;;;;;;8.30;84.89;98500.47;4394329;32;20406;-74
2023/12/15 03:00:03;;;;;;;16.23;7.05;;;;;;;7.87;87.26;98495.53;4394168;32;20091;-73
2023/12/15 03:02:30;;;;;;;17.15;7.90;;;;;;;8.63;83.86;98509.88;4395598;32;20082;-75
2023/12/15 03:04:57;;;;;;;18.35;7.93;;;;;;;7.80;87.52;98503.44;4395611;32;20133;-74
2023/12/15 03:07:24;;;;;;;15.15;7.20;;;;;;;8.03;87.89;98509.72;4395091;32;20156;-74
2023/12/15 03:09:51;;;;;;;18.27;7.82;;;;;;;7.91;86.89;98499.75;4395607;32;20086;-74
2023/12/15 03:12:18;;;;;;;16.85;7.68;;;;;;;7.53;90.52;98504.91;4394008;32;20487;-75
2023/12/15 03:14:45;;;;;;;17.10;7.65;;;;;;;7.30;92.51;98512.28;4395415;32;20442;-74
2023/12/15 03:17:12;;;;;;;16.45;8.05;;;;;;;7.41;91.79;98507.75;4395257;32;20508;-74
2023/12/15 03:19:39;;;;;;;18.02;7.62;;;;;;;7.24;93.70;98520.16;4395140;32;20091;-73
2023/12/15 03:22:06;;;;;;;15.52;7.35;;;;;;;7.46;91.31;98517.94;4395490;32;20408;-73
2023/12/15 03:24:33;;;;;;;15.85;6.72;;;;;;;7.17;94.05;98519.41;4394894;32;20530;-73
2023/12/15 03:27:00;;;;;;;16.02;6.37;;;;;;;7.79;89.34;98513.75;4394915;32;20169;-73
2023/12/15 03:29:27;;;;;;;16.02;7.62;;;;;;;7.28;92.15;98519.19;4395564;32;20082;-73
2023/12/15 03:31:54;;;;;;;16.58;7.97;;;;;;;7.17;92.37;98524.56;4395395;32;20451;-73
2023/12/15 03:34:21;;;;;;;15.52;6.80;;;;;;;6.72;96.31;98528.91;4395114;32;20094;-73
2023/12/15 03:36:48;;;;;;;15.07;7.22;;;;;;;7.03;92.91;98539.41;4395198;32;20449;-74
2023/12/15 03:39:15;;;;;;;15.55;6.80;;;;;;;7.21;92.46;98543.28;4395122;32;20149;-73
2023/12/15 03:41:41;;;;;;;15.85;7.18;;;;;;;7.15;92.51;98541.72;4394923;32;20173;-73
2023/12/15 03:44:08;;;;;;;15.45;6.78;;;;;;;7.57;91.20;98557.06;4395322;32;20113;-73
2023/12/15 03:46:35;;;;;;;14.98;6.53;;;;;;;7.71;88.26;98554.16;4395186;32;20112;-73
2023/12/15 03:49:02;;;;;;;14.25;6.70;;;;;;;7.92;87.94;98558.81;4394893;32;20091;-74
2023/12/15 03:51:29;;;;;;;14.00;6.97;;;;;;;7.91;87.99;98563.97;4395283;32;20109;-73
2023/12/15 03:53:56;;;;;;;16.42;7.10;;;;;;;7.73;89.14;98571.22;4395246;32;20230;-73
2023/12/15 03:56:26;;;;;;;15.02;6.87;;;;;;;7.42;91.47;98570.22;4394788;32;20102;-73
2023/12/15 03:58:54;;;;;;;14.55;6.55;;;;;;;7.51;90.15;98582.84;4393971;32;20109;-73
2023/12/15 04:01:21;;;;;;;16.52;7.25;;;;;;;7.59;89.26;98582.69;4394996;32;20568;-74
2023/12/15 04:03:48;;;;;;;14.48;6.70;;;;;;;6.85;94.40;98568.84;4395225;32;20090;-73
2023/12/15 04:06:15;;;;;;;17.65;7.53;;;;;;;7.29;91.72;98569.66;4395016;32;20146;-73
2023/12/15 04:08:42;;;;;;;15.43;6.62;;;;;;;7.71;90.32;98577.28;4394810;32;20112;-73
2023/12/15 04:11:09;;;;;;;15.63;6.72;;;;;;;7.17;93.02;98591.28;4393920;32;20090;-74
2023/12/15 04:13:37;;;;;;;13.57;6.43;;;;;;;6.86;94.00;98582.50;4395145;32;20116;-74
2023/12/15 04:16:05;;;;;;;16.15;7.32;;;;;;;7.05;93.23;98590.69;4394810;32;20130;-74
2023/12/15 04:18:33;;;;;;;15.73;7.00;;;;;;;7.36;92.52;98596.03;4394972;32;20090;-74
2023/12/15 04:21:03;;;;;;;14.23;6.80;;;;;;;7.11;93.00;98593.13;4395074;32;20126;-74
2023/12/15 04:23:31;;;;;;;12.75;5.90;;;;;;;7.18;91.59;98592.97;4394737;32;20090;-73
2023/12/15 04:25:58;;;;;;;14.27;7.05;;;;;;;7.06;92.65;98590.66;4394941;32;20362;-73
2023/12/15 04:28:26;;;;;;;14.87;7.10;;;;;;;6.38;97.18;98593.63;4394983;32;20167;-73
2023/12/15 04:31:14;;;;;;;14.23;6.78;;;;;;;6.67;95.94;98589.69;4394639;32;20120;-73
2023/12/15 04:33:41;;;;;;;14.02;6.68;;;;;;;7.02;93.61;98595.84;4394983;32;20110;-73
2023/12/15 04:36:09;;;;;;;16.98;7.18;;;;;;;7.02;92.36;98596.72;4380117;32;20186;-74
2023/12/15 04:38:36;;;;;;;13.48;6.45;;;;;;;7.29;89.91;98603.00;4394287;32;20858;-74
2023/12/15 04:41:03;;;;;;;14.60;6.70;;;;;;;7.01;91.96;98601.88;4395113;32;20147;-73
2023/12/15 04:43:30;;;;;;;14.55;6.22;;;;;;;7.05;91.47;98598.37;4394651;32;20434;-72
2023/12/15 04:45:56;;;;;;;16.00;6.47;;;;;;;6.27;95.45;98587.84;4394960;32;20166;-73
2023/12/15 04:48:23;;;;;;;;;;;;;;;6.41;96.29;98597.84;4395043;32;20173;-73
2023/12/15 04:50:50;;;;;;;13.13;6.05;;;;;;;6.62;94.19;98602.59;4394581;32;20021;-73
2023/12/15 04:53:17;;;;;;;15.50;6.40;;;;;;;6.74;93.50;98611.78;4394772;32;20162;-73
2023/12/15 04:55:44;;;;;;;16.35;6.85;;;;;;;6.54;95.34;98611.31;4394686;32;20112;-73
2023/12/15 04:58:11;;;;;;;12.07;5.22;;;;;;;6.20;96.66;98621.28;4394313;32;20104;-73
2023/12/15 05:00:37;;;;;;;;;;;;;;;6.48;95.22;98626.78;4395164;32;20108;-73
2023/12/15 05:03:04;;;;;;;13.35;5.75;;;;;;;6.64;94.95;98644.44;4394853;32;19989;-73
2023/12/15 05:05:31;;;;;;;13.15;5.62;;;;;;;7.01;92.23;98640.34;4394288;32;20102;-73
2023/12/15 05:07:58;;;;;;;14.27;6.15;;;;;;;6.60;93.39;98647.09;4394474;32;20086;-73
2023/12/15 05:10:25;;;;;;;11.73;5.50;;;;;;;6.88;92.01;98648.28;4394683;32;20086;-73
2023/12/15 05:12:52;;;;;;;14.35;6.20;;;;;;;6.82;91.55;98642.44;4394361;32;20095;-73
2023/12/15 05:15:19;;;;;;;;;;;;;;;6.29;95.14;98646.75;4394943;32;20417;-73
2023/12/15 05:17:46;;;;;;;11.45;5.12;;;;;;;6.83;93.38;98652.66;4394567;32;19984;-73
2023/12/15 05:20:13;;;;;;;12.02;4.70;;;;;;;5.94;96.45;98655.81;4394176;32;20081;-74
2023/12/15 05:22:40;;;;;;;12.68;5.85;;;;;;;6.53;94.13;98659.16;4394529;32;20094;-74
2023/12/15 05:25:07;;;;;;;10.90;5.40;;;;;;;6.78;92.88;98648.47;4394492;32;20742;-74
2023/12/15 05:27:34;;;;;;;12.30;5.57;;;;;;;6.12;95.21;98648.72;4394144;32;20105;-74
2023/12/15 05:30:02;;;;;;;11.48;5.15;;;;;;;6.14;95.63;98664.91;4394472;32;20142;-73
2023/12/15 05:32:29;;;;;;;11.90;5.43;;;;;;;6.39;94.10;98658.56;4393089;32;20153;-73
2023/12/15 05:34:56;;;;;;;12.95;5.18;;;;;;;6.23;96.07;98667.34;4394388;32;20090;-73
2023/12/15 05:37:25;;;;;;;12.32;5.30;;;;;;;6.22;95.99;98670.78;4394508;32;20125;-81
2023/12/15 05:39:52;;;;;;;11.43;5.03;;;;;;;5.97;97.03;98681.41;4393792;32;20381;-75
2023/12/15 05:42:19;;;;;;;11.70;5.28;;;;;;;6.45;95.67;98686.62;4395054;32;20164;-74
2023/12/15 05:44:46;;;;;;;12.90;5.43;;;;;;;5.91;97.40;98696.84;4394189;32;20148;-74
2023/12/15 05:47:13;;;;;;;;;;;;;;;6.22;96.62;98704.94;4394954;32;20108;-73
2023/12/15 05:49:40;;;;;;;11.10;4.75;;;;;;;5.85;98.31;98698.59;4396120;32;20309;-74
2023/12/15 05:52:09;;;;;;;12.60;5.28;;;;;;;5.93;97.23;98696.81;4382691;32;20118;-74
2023/12/15 05:54:42;;;;;;;13.23;6.10;;;;;;;5.94;98.24;98707.03;4395717;32;20109;-73
2023/12/15 05:57:09;;;;;;;11.20;4.62;;;;;;;6.34;95.95;98703.91;4395952;32;20563;-74
2023/12/15 05:59:40;;;;;;;11.65;5.05;;;;;;;6.31;95.38;98704.81;4396018;32;20070;-74
2023/12/15 06:02:09;;;;;;;11.73;5.20;;;;;;;6.53;93.55;98710.44;4395635;32;20520;-74
2023/12/15 06:04:36;;;;;;;12.40;5.00;;;;;;;6.60;93.27;98709.47;4395987;32;20095;-74
2023/12/15 06:07:03;;;;;;;10.65;4.80;;;;;;;6.90;91.05;98720.06;4395861;32;20173;-74
2023/12/15 06:09:30;;;;;;;12.55;5.45;;;;;;;5.79;97.60;98702.09;4395678;32;20078;-73
2023/12/15 06:11:59;;;;;;;11.25;4.90;;;;;;;6.04;97.36;98712.87;4394767;32;20115;-74
2023/12/15 06:14:26;;;;;;;11.07;4.80;;;;;;;5.90;98.17;98712.19;4395968;32;20082;-74
2023/12/15 06:16:54;;;;;;;13.20;6.10;;;;;;;6.16;96.23;98699.88;4395387;32;20146;-74
2023/12/15 06:19:21;;;;;;;11.18;5.03;;;;;;;6.45;93.47;98704.59;4395839;32;20101;-74
2023/12/15 06:21:48;;;;;;;13.77;6.07;;;;;;;6.16;95.26;98714.41;4395560;32;20106;-73
2023/12/15 06:24:15;;;;;;;13.57;5.85;;;;;;;5.55;98.90;98710.94;4395905;32;20139;-74
2023/12/15 06:26:42;;;;;;;12.45;5.47;;;;;;;5.84;98.12;98714.84;4394572;32;20149;-74
2023/12/15 06:29:09;;;;;;;11.65;5.32;;;;;;;5.97;97.13;98718.97;4395424;32;20070;-73
2023/12/15 06:31:35;;;;;;;12.73;5.68;;;;;;;6.06;95.33;98732.50;4395763;32;20433;-74
2023/12/15 06:34:03;;;;;;;12.75;5.22;;;;;;;6.12;94.88;98735.84;4395832;32;20095;-74
2023/12/15 06:36:30;;;;;;;10.40;4.80;;;;;;;5.57;98.76;98746.75;4395321;32;20090;-74
2023/12/15 06:38:57;;;;;;;11.85;5.18;;;;;;;5.92;97.36;98765.13;4395404;32;20101;-74
2023/12/15 06:41:24;;;;;;;12.27;5.10;;;;;;;5.96;96.63;98771.94;4394541;32;20566;-74
2023/12/15 06:43:51;;;;;;;11.82;4.80;;;;;;;6.34;94.00;98773.94;4395435;32;20148;-74
2023/12/15 06:46:18;;;;;;;10.52;4.95;;;;;;;6.58;93.29;98782.16;4395614;32;20101;-74
2023/12/15 06:48:45;;;;;;;12.88;5.30;;;;;;;6.03;94.86;98788.87;4395587;32;20098;-73
2023/12/15 06:51:13;;;;;;;14.73;5.40;;;;;;;6.18;94.13;98810.91;4395276;32;20111;-73
2023/12/15 06:53:40;;;;;;;14.90;5.35;;;;;;;6.53;92.96;98812.16;4395634;32;20091;-73
2023/12/15 06:56:07;;;;;;;10.02;4.30;;;;;;;6.59;91.05;98815.50;4381913;32;20149;-73
2023/12/15 06:58:34;;;;;;;10.35;4.20;;;;;;;6.50;89.02;98810.50;4394395;32;20113;-73
2023/12/15 07:01:02;;;;;;;9.50;4.22;;;;;;;6.89;88.16;98833.81;4395592;32;20094;-73
2023/12/15 07:03:29;;;;;;;10.90;4.82;;;;;;;6.48;89.97;98827.59;4395505;32;20160;-73
2023/12/15 07:05:56;;;;;;;9.93;4.22;;;;;;;7.14;85.51;98847.12;4395177;32;20122;-74
2023/12/15 07:08:23;;;;;;;9.65;4.07;;;;;;;7.13;85.83;98848.00;4397181;32;20109;-73
2023/12/15 07:10:50;;;;;;;10.35;4.07;;;;;;;7.29;84.25;98846.03;4395216;32;20153;-72
2023/12/15 07:13:17;;;;;;;10.75;4.40;;;;;;;7.21;83.61;98843.56;4395328;32;20105;-73
2023/12/15 07:15:44;;;;;;;10.48;4.00;;;;;;;7.37;82.56;98839.91;4395417;32;20109;-73
2023/12/15 07:18:11;;;;;;;7.60;3.47;;;;;;;7.48;81.68;98845.69;4394959;32;20112;-73
2023/12/15 07:20:38;;;;;;;10.15;4.00;;;;;;;7.40;80.88;98849.25;4395394;32;20112;-73
2023/12/15 07:23:05;;;;;;;10.18;4.18;;;;;;;7.18;81.92;98849.63;4395413;32;20125;-73
2023/12/15 07:25:32;;;;;;;9.90;4.07;;;;;;;6.97;83.54;98844.81;4394889;32;20098;-72
2023/12/15 07:27:59;;;;;;;8.60;3.30;;;;;;;7.80;80.37;98852.81;4395141;32;20082;-73
2023/12/15 07:30:26;;;;;;;11.15;3.92;;;;;;;8.26;75.51;98841.59;4395500;32;20102;-79
2023/12/15 07:32:53;;;;;;;11.12;3.65;;;;;;;8.03;75.84;98869.50;4395198;32;20082;-78
2023/12/15 07:35:23;;;;;;;8.15;3.30;;;;;;;8.05;76.26;98868.59;4398510;32;20063;-78
2023/12/15 07:40:43;;;;;;;11.90;4.53;;;;;;;7.63;79.71;98883.09;4662749;26;20181;-78
2023/12/15 07:43:10;;;;;;;10.43;3.95;;;;;;;7.88;79.19;98888.66;4395424;32;20164;-78
2023/12/15 07:45:37;;;;;;;10.02;4.00;;;;;;;8.53;75.17;98883.09;4401708;32;20106;-78
2023/12/15 07:48:04;;;;;;;10.55;4.43;;;;;;;8.00;76.79;98890.97;4405435;32;20093;-78
2023/12/15 07:50:32;;;;;;;12.85;4.72;;;;;;;7.70;78.08;98896.69;4398696;32;20144;-78
2023/12/15 07:52:59;;;;;;;9.43;4.15;;;;;;;8.13;76.99;98895.00;4411814;32;20174;-77
2023/12/15 07:55:26;;;;;;;10.32;4.40;;;;;;;7.22;80.22;98909.44;4414586;32;20066;-78
2023/12/15 07:57:53;;;;;;;10.45;4.30;;;;;;;7.81;77.89;98903.31;4440911;27;20094;-78
2023/12/15 08:00:20;;;;;;;9.90;4.72;;;;;;;7.47;80.21;98915.03;4395905;32;20551;-78
2023/12/15 08:02:47;;;;;;;10.60;4.35;;;;;;;7.67;78.00;98914.72;4397176;32;20094;-77
2023/12/15 08:05:14;;;;;;;12.02;4.95;;;;;;;7.35;79.39;98920.38;4395081;32;20156;-77
2023/12/15 08:07:44;;;;;;;11.35;4.55;;;;;;;7.67;79.14;98925.84;4399324;32;20102;-77
2023/12/15 08:10:11;;;;;;;10.40;4.32;;;;;;;7.16;78.66;98919.81;4409958;32;20149;-77
2023/12/15 08:12:38;;;;;;;10.75;4.72;;;;;;;7.46;77.42;98936.47;4412346;32;20111;-76
2023/12/15 08:15:05;;;;;;;10.35;4.20;;;;;;;6.94;79.65;98932.13;4410784;32;20154;-77
2023/12/15 08:17:33;;;;;;;10.63;4.57;;;;;;;7.11;79.35;98947.25;4410160;32;20589;-77
2023/12/15 08:20:02;;;;;;;11.05;4.68;;;;;;;7.08;79.38;98948.16;4396369;32;20113;-77
2023/12/15 08:22:29;;;;;;;11.70;4.78;;;;;;;7.15;78.95;98954.91;4409750;32;20094;-77
2023/12/15 08:24:56;;;;;;;11.25;4.53;;;;;;;6.88;79.89;98945.00;4410033;32;20089;-76
2023/12/15 08:27:24;;;;;;;12.30;4.87;;;;;;;6.98;79.13;98959.41;4409903;32;20150;-76
2023/12/15 08:29:51;;;;;;;12.02;4.97;;;;;;;6.63;79.67;98953.03;4409626;32;20106;-77
2023/12/15 08:32:18;;;;;;;12.25;5.28;;;;;;;6.66;79.84;98955.56;4410180;32;20098;-77
2023/12/15 08:34:46;;;;;;;11.93;5.10;;;;;;;6.71;80.30;98957.22;4410035;32;20077;-77
2023/12/15 08:37:13;;;;;;;11.20;4.87;;;;;;;6.62;78.46;98959.03;4395829;32;20086;-77
2023/12/15 08:39:40;;;;;;;11.15;4.57;;;;;;;6.29;81.20;98959.44;4409795;32;20140;-77
2023/12/15 08:42:07;;;;;;;10.07;4.25;;;;;;;6.31;81.92;98953.41;4409829;32;20448;-78
2023/12/15 08:44:34;;;;;;;10.57;4.30;;;;;;;6.79;79.79;98958.81;4408946;32;20108;-77
2023/12/15 08:47:01;;;;;;;11.85;4.45;;;;;;;6.65;77.40;98958.13;4409795;32;20137;-77
2023/12/15 08:49:28;;;;;;;11.15;4.50;;;;;;;6.19;79.18;98961.25;4409629;32;20107;-77
2023/12/15 08:51:56;;;;;;;10.70;4.47;;;;;;;6.66;77.85;98972.66;4409670;32;20106;-78
2023/12/15 08:54:23;;;;;;;9.75;4.28;;;;;;;6.60;78.11;98955.66;4409803;32;20425;-78
2023/12/15 08:56:50;;;;;;;12.32;4.45;;;;;;;6.36;77.92;98953.34;4409219;32;20126;-77
2023/12/15 08:59:17;;;;;;;7.97;2.97;;;;;;;6.55;76.71;98967.66;4409586;32;20110;-77
2023/12/15 09:01:44;;;;;;;11.73;4.55;;;;;;;5.96;79.44;98964.03;4409893;32;20156;-78
2023/12/15 09:04:11;;;;;;;11.90;4.15;;;;;;;6.43;76.74;98966.97;4409433;32;20093;-78
2023/12/15 09:06:37;;;;;;;10.15;4.03;;;;;;;6.40;77.01;98957.59;4409483;32;20160;-78
2023/12/15 09:11:46;;;;;;;9.10;3.53;;;;;;;6.62;77.37;98976.97;4319061;30;20103;-77
2023/12/15 09:14:15;;;;;;;11.12;4.50;;;;;;;6.56;76.52;98978.75;4394644;32;20116;-78
2023/12/15 09:16:43;;;;;;;11.40;4.53;;;;;;;6.11;77.49;98978.41;4394364;32;20441;-79
2023/12/15 09:19:09;;;;;;;12.68;4.40;;;;;;;6.33;78.15;98968.78;4406871;32;20114;-77
2023/12/15 09:21:37;;;;;;;11.63;4.50;;;;;;;6.49;78.50;98989.97;4408881;32;20165;-80
2023/12/15 09:24:03;;;;;;;11.30;4.28;;;;;;;6.32;78.73;98978.19;4410221;32;20074;-82
2023/12/15 09:26:33;;;;;;;9.27;3.80;;;;;;;6.48;77.60;98986.53;4409959;32;20093;-79
2023/12/15 09:29:00;;;;;;;12.48;4.60;;;;;;;6.24;75.82;98968.88;4409538;32;20469;-78
2023/12/15 09:31:27;;;;;;;9.57;4.10;;;;;;;6.75;74.61;99005.88;4409239;32;20090;-78
2023/12/15 09:33:53;;;;;;;;;;;;;;;6.45;74.32;99003.66;4409840;32;20090;-78
2023/12/15 09:36:21;;;;;;;11.05;4.15;;;;;;;6.56;74.82;99005.25;4409448;32;19969;-77
2023/12/15 09:38:48;;;;;;;11.93;4.07;;;;;;;6.99;73.57;99020.13;4409048;32;20109;-77
2023/12/15 09:41:15;;;;;;;9.85;3.50;;;;;;;7.27;71.72;99028.31;4409330;32;20108;-79
2023/12/15 09:43:42;;;;;;;10.95;4.47;;;;;;;7.48;71.13;99025.44;4408347;32;20090;-80
2023/12/15 09:46:09;;;;;;;11.02;4.28;;;;;;;7.04;72.60;99018.34;4407735;32;20089;-80
2023/12/15 09:48:36;;;;;;;12.45;4.03;;;;;;;6.72;72.85;99028.16;4443164;27;20124;-81
2023/12/15 09:51:07;;;;;;;10.57;4.37;;;;;;;7.37;71.68;99040.16;4409285;32;20098;-81
2023/12/15 09:53:36;;;;;;;12.57;4.72;;;;;;;7.36;70.81;99038.44;4395452;32;20535;-81
2023/12/15 09:56:04;;;;;;;11.30;4.05;;;;;;;7.54;68.57;99052.72;4409046;32;20086;-81
2023/12/15 09:58:31;;;;;;;11.35;4.25;;;;;;;7.36;69.48;99056.44;4417429;32;20152;-80
2023/12/15 10:00:58;;;;;;;13.52;4.32;;;;;;;7.70;68.93;99068.78;4423949;32;20164;-80
2023/12/15 10:03:25;;;;;;;13.00;4.78;;;;;;;7.05;70.56;99068.81;4424362;32;20496;-80
2023/12/15 10:05:52;;;;;;;13.60;4.70;;;;;;;7.97;68.41;99093.19;4424309;32;20153;-81
2023/12/15 10:08:23;;;;;;;12.20;4.20;;;;;;;7.97;67.52;99099.19;4423565;32;20125;-81
2023/12/15 10:10:51;;;;;;;12.50;4.05;;;;;;;8.70;64.67;99102.25;4411003;32;20110;-80
2023/12/15 10:13:18;;;;;;;13.07;4.75;;;;;;;8.96;62.46;99100.06;4424146;32;20086;-81
2023/12/15 10:15:50;;;;;;;11.50;4.60;;;;;;;8.18;64.18;99103.13;4424042;32;20094;-81
2023/12/15 10:18:18;;;;;;;13.13;4.90;;;;;;;8.61;62.79;99115.28;4424174;32;20102;-81
2023/12/15 10:20:58;;;;;;;11.85;4.32;;;;;;;7.69;64.95;99108.19;4423907;32;20137;-81
2023/12/15 10:23:29;;;;;;;14.40;4.47;;;;;;;8.44;62.27;99105.31;4424117;32;20093;-81
2023/12/15 10:26:03;;;;;;;12.02;4.80;;;;;;;8.31;63.48;99122.66;4423935;32;20104;-80
2023/12/15 10:28:38;;;;;;;13.88;4.78;;;;;;;8.68;63.44;99125.44;4423593;32;20465;-81
2023/12/15 10:31:07;;;;;;;11.43;4.25;;;;;;;8.18;65.08;99122.84;4422761;32;20098;-81
2023/12/15 10:33:34;;;;;;;12.65;5.32;;;;;;;8.97;61.45;99124.06;4411478;32;20154;-81
2023/12/15 10:36:02;;;;;;;14.45;4.70;;;;;;;9.12;61.56;99125.50;4425662;32;20101;-80
2023/12/15 10:38:30;;;;;;;12.02;4.40;;;;;;;8.64;61.36;99122.97;4426159;32;20101;-80
2023/12/15 10:40:57;;;;;;;12.35;4.37;;;;;;;8.22;62.60;99133.06;4412282;32;20126;-80
2023/12/15 10:43:26;;;;;;;11.63;4.28;;;;;;;9.02;60.63;99129.97;4425727;32;20505;-81
2023/12/15 10:45:54;;;;;;;13.05;4.62;;;;;;;9.29;59.13;99138.88;4424879;32;20149;-80
2023/12/15 10:48:21;;;;;;;11.98;4.40;;;;;;;9.14;59.07;99136.59;4425457;32;20139;-80
2023/12/15 10:50:48;;;;;;;13.82;4.60;;;;;;;8.73;61.09;99147.69;4426127;32;20133;-80
2023/12/15 10:53:16;;;;;;;14.52;5.10;;;;;;;9.49;57.56;99152.22;4426065;32;20176;-81
2023/12/15 10:55:46;;;;;;;13.40;4.57;;;;;;;9.34;57.07;99155.09;4425206;32;20419;-81
2023/12/15 10:58:13;;;;;;;12.70;4.65;;;;;;;9.82;56.67;99150.62;4409275;32;20121;-80
2023/12/15 11:00:40;;;;;;;12.45;4.68;;;;;;;8.26;59.49;99157.84;4425682;32;20105;-80
2023/12/15 11:03:10;;;;;;;11.35;4.50;;;;;;;8.70;59.87;99164.00;4425623;32;20396;-81
2023/12/15 11:05:40;;;;;;;13.40;4.75;;;;;;;8.66;59.81;99164.94;4411887;32;20138;-81
2023/12/15 11:08:07;;;;;;;13.40;4.43;;;;;;;9.17;56.73;99167.47;4425940;32;20120;-80
2023/12/15 11:10:36;;;;;;;12.85;4.60;;;;;;;9.29;56.29;99159.50;4425463;32;20090;-80
2023/12/15 11:13:04;;;;;;;12.75;4.45;;;;;;;8.74;57.65;99167.41;4412015;32;20147;-81
2023/12/15 11:15:31;;;;;;;12.85;4.50;;;;;;;9.38;56.76;99173.91;4425441;32;20569;-80
2023/12/15 11:17:59;;;;;;;11.32;4.55;;;;;;;10.20;53.12;99177.25;4425364;32;20089;-80
2023/12/15 11:20:28;;;;;;;11.32;3.78;;;;;;;10.27;52.42;99173.72;4425503;32;20140;-79
2023/12/15 11:23:04;;;;;;;9.98;4.05;;;;;;;10.90;50.79;99175.56;4425694;32;20135;-81
2023/12/15 11:25:33;;;;;;;11.55;4.15;;;;;;;8.82;56.57;99179.22;4425528;32;20085;-81
2023/12/15 11:28:15;;;;;;;11.65;3.78;;;;;;;9.37;53.40;99174.81;4516368;27;20919;-80
2023/12/15 11:30:45;;;;;;;11.10;4.00;;;;;;;9.15;53.77;99175.22;4404603;32;20112;-81
2023/12/15 11:33:36;;;;;;;11.63;4.53;;;;;;;9.61;54.56;99174.28;4397034;32;20623;-81
2023/12/15 11:36:13;;;;;;;11.60;4.10;;;;;;;9.36;54.34;99168.81;4398131;32;20495;-81
2023/12/15 11:38:42;;;;;;;10.93;4.00;;;;;;;9.32;53.22;99167.16;4410820;32;20129;-81
2023/12/15 11:41:10;;;;;;;12.02;4.35;;;;;;;9.31;54.38;99180.91;4397872;32;20799;-81